sensor_id;sensor_type;location;lat;lon;timestamp;pressure;altitude;pressure_sealevel;temperature;humidity
6835;BME280;3455;42.150;24.734;2023-04-02T00:02:24;66612.00;;;12.52;58.86
6835;BME280;3455;42.150;24.734;2023-04-02T00:05:25;66620.91;;;12.46;59.10
6835;BME280;3455;42.150;24.734;2023-04-02T00:07:57;66598.94;;;12.04;59.83
6835;BME280;3455;42.150;24.734;2023-04-02T00:10:26;66624.56;;;12.14;59.86
6835;BME280;3455;42.150;24.734;2023-04-02T00:13:04;66585.28;;;12.01;60.71
6835;BME280;3455;42.150;24.734;2023-04-02T00:15:33;66597.66;;;11.99;60.65
6835;BME280;3455;42.150;24.734;2023-04-02T00:18:01;66583.81;;;12.09;60.36
6835;BME280;3455;42.150;24.734;2023-04-02T00:20:31;66577.22;;;11.94;60.64
6835;BME280;3455;42.150;24.734;2023-04-02T00:23:01;66572.59;;;12.13;59.88
6835;BME280;3455;42.150;24.734;2023-04-02T00:25:35;66613.47;;;11.99;60.92
6835;BME280;3455;42.150;24.734;2023-04-02T00:28:09;66623.44;;;12.35;59.57
6835;BME280;3455;42.150;24.734;2023-04-02T00:30:45;66641.09;;;12.31;59.33
6835;BME280;3455;42.150;24.734;2023-04-02T00:33:16;66619.97;;;12.32;58.59
6835;BME280;3455;42.150;24.734;2023-04-02T00:35:43;66633.81;;;12.33;58.93
6835;BME280;3455;42.150;24.734;2023-04-02T00:38:18;66631.53;;;12.42;58.64
6835;BME280;3455;42.150;24.734;2023-04-02T00:40:46;66610.16;;;12.23;58.99
6835;BME280;3455;42.150;24.734;2023-04-02T00:43:15;66591.09;;;12.29;58.56
6835;BME280;3455;42.150;24.734;2023-04-02T00:45:43;66617.66;;;12.30;58.26
6835;BME280;3455;42.150;24.734;2023-04-02T00:48:25;66546.31;;;12.21;56.85
6835;BME280;3455;42.150;24.734;2023-04-02T00:50:55;66678.91;;;12.84;56.75
6835;BME280;3455;42.150;24.734;2023-04-02T00:53:25;66625.75;;;12.37;58.23
6835;BME280;3455;42.150;24.734;2023-04-02T00:55:53;66599.41;;;12.23;58.80
6835;BME280;3455;42.150;24.734;2023-04-02T00:58:27;66615.94;;;12.51;58.06
6835;BME280;3455;42.150;24.734;2023-04-02T01:00:55;66611.44;;;12.63;57.31
6835;BME280;3455;42.150;24.734;2023-04-02T01:03:32;66674.41;;;12.74;57.47
6835;BME280;3455;42.150;24.734;2023-04-02T01:06:03;66701.13;;;12.91;57.15
6835;BME280;3455;42.150;24.734;2023-04-02T01:08:44;66657.88;;;12.57;58.38
6835;BME280;3455;42.150;24.734;2023-04-02T01:11:24;66620.44;;;12.51;58.83
6835;BME280;3455;42.150;24.734;2023-04-02T01:13:57;66628.88;;;12.60;57.90
6835;BME280;3455;42.150;24.734;2023-04-02T01:16:32;66669.69;;;12.76;57.74
6835;BME280;3455;42.150;24.734;2023-04-02T01:19:15;66671.28;;;12.73;57.72
6835;BME280;3455;42.150;24.734;2023-04-02T01:21:55;66649.47;;;12.58;57.88
6835;BME280;3455;42.150;24.734;2023-04-02T01:24:27;66607.28;;;12.43;58.14
6835;BME280;3455;42.150;24.734;2023-04-02T01:26:56;66634.84;;;12.18;58.75
6835;BME280;3455;42.150;24.734;2023-04-02T01:29:28;66572.59;;;11.90;60.10
6835;BME280;3455;42.150;24.734;2023-04-02T01:31:59;66646.69;;;11.97;60.35
6835;BME280;3455;42.150;24.734;2023-04-02T01:34:27;66600.22;;;12.10;59.31
6835;BME280;3455;42.150;24.734;2023-04-02T01:37:15;66625.97;;;12.24;58.70
6835;BME280;3455;42.150;24.734;2023-04-02T01:39:59;66618.81;;;12.31;58.79
6835;BME280;3455;42.150;24.734;2023-04-02T01:42:33;66571.94;;;12.07;59.69
6835;BME280;3455;42.150;24.734;2023-04-02T01:45:04;66602.63;;;12.05;59.41
6835;BME280;3455;42.150;24.734;2023-04-02T01:47:33;66624.59;;;12.36;58.28
6835;BME280;3455;42.150;24.734;2023-04-02T01:50:03;66661.81;;;12.56;57.71
6835;BME280;3455;42.150;24.734;2023-04-02T01:52:35;66598.22;;;11.99;59.21
6835;BME280;3455;42.150;24.734;2023-04-02T01:55:04;66517.63;;;11.71;60.48
6835;BME280;3455;42.150;24.734;2023-04-02T01:57:31;66586.47;;;12.02;59.38
6835;BME280;3455;42.150;24.734;2023-04-02T01:59:59;66558.75;;;12.00;59.54
6835;BME280;3455;42.150;24.734;2023-04-02T02:02:27;66616.13;;;11.93;59.86
6835;BME280;3455;42.150;24.734;2023-04-02T02:04:54;66621.31;;;12.08;59.13
6835;BME280;3455;42.150;24.734;2023-04-02T02:07:21;66548.09;;;11.82;59.09
6835;BME280;3455;42.150;24.734;2023-04-02T02:09:48;66560.31;;;11.75;60.28
6835;BME280;3455;42.150;24.734;2023-04-02T02:12:16;66581.28;;;12.20;59.08
6835;BME280;3455;42.150;24.734;2023-04-02T02:14:46;66599.63;;;12.10;59.55
6835;BME280;3455;42.150;24.734;2023-04-02T02:17:15;66572.13;;;11.83;60.49
6835;BME280;3455;42.150;24.734;2023-04-02T02:19:44;66566.59;;;11.98;60.55
6835;BME280;3455;42.150;24.734;2023-04-02T02:22:17;66598.31;;;11.81;60.54
6835;BME280;3455;42.150;24.734;2023-04-02T02:24:47;66604.94;;;11.96;59.93
6835;BME280;3455;42.150;24.734;2023-04-02T02:27:41;66580.22;;;11.90;59.70
6835;BME280;3455;42.150;24.734;2023-04-02T02:30:13;66611.84;;;11.91;59.19
6835;BME280;3455;42.150;24.734;2023-04-02T02:32:46;66672.22;;;12.65;56.74
6835;BME280;3455;42.150;24.734;2023-04-02T02:35:19;66631.53;;;12.42;56.68
6835;BME280;3455;42.150;24.734;2023-04-02T02:37:51;66678.91;;;12.84;56.63
6835;BME280;3455;42.150;24.734;2023-04-02T02:40:25;66658.44;;;12.46;57.41
6835;BME280;3455;42.150;24.734;2023-04-02T02:42:56;66629.78;;;12.41;57.10
6835;BME280;3455;42.150;24.734;2023-04-02T02:45:25;66661.59;;;12.92;55.53
6835;BME280;3455;42.150;24.734;2023-04-02T02:47:55;66649.78;;;12.50;56.04
6835;BME280;3455;42.150;24.734;2023-04-02T02:50:25;66646.56;;;12.56;56.53
6835;BME280;3455;42.150;24.734;2023-04-02T02:52:57;66628.66;;;12.40;57.03
6835;BME280;3455;42.150;24.734;2023-04-02T02:55:28;66671.28;;;12.73;56.51
6835;BME280;3455;42.150;24.734;2023-04-02T02:57:59;66682.63;;;12.74;56.14
6835;BME280;3455;42.150;24.734;2023-04-02T03:00:29;66685.38;;;12.50;57.04
6835;BME280;3455;42.150;24.734;2023-04-02T03:02:56;66676.03;;;13.04;55.74
6835;BME280;3455;42.150;24.734;2023-04-02T03:05:26;66691.28;;;12.82;56.97
6835;BME280;3455;42.150;24.734;2023-04-02T03:07:55;66673.25;;;12.61;58.71
6835;BME280;3455;42.150;24.734;2023-04-02T03:10:29;66608.41;;;12.22;60.34
6835;BME280;3455;42.150;24.734;2023-04-02T03:13:07;66652.34;;;12.61;59.31
6835;BME280;3455;42.150;24.734;2023-04-02T03:15:39;66651.19;;;12.60;58.77
6835;BME280;3455;42.150;24.734;2023-04-02T03:18:11;66685.38;;;12.50;59.53
6835;BME280;3455;42.150;24.734;2023-04-02T03:20:45;66664.22;;;12.40;60.31
6835;BME280;3455;42.150;24.734;2023-04-02T03:23:17;66682.59;;;12.52;59.92
6835;BME280;3455;42.150;24.734;2023-04-02T03:25:50;66607.25;;;12.21;60.43
6835;BME280;3455;42.150;24.734;2023-04-02T03:28:20;66676.81;;;12.46;59.96
6835;BME280;3455;42.150;24.734;2023-04-02T03:30:53;66709.59;;;11.67;60.45
6835;BME280;3455;42.150;24.734;2023-04-02T03:33:24;66625.38;;;12.23;60.75
6835;BME280;3455;42.150;24.734;2023-04-02T03:35:57;66648.63;;;12.49;60.39
6835;BME280;3455;42.150;24.734;2023-04-02T03:38:29;66643.28;;;12.17;61.10
6835;BME280;3455;42.150;24.734;2023-04-02T03:41:01;66576.78;;;12.21;61.35
6835;BME280;3455;42.150;24.734;2023-04-02T03:43:32;66620.53;;;12.21;61.06
6835;BME280;3455;42.150;24.734;2023-04-02T03:46:10;66585.94;;;11.84;63.17
6835;BME280;3455;42.150;24.734;2023-04-02T03:48:40;66598.06;;;11.83;62.99
6835;BME280;3455;42.150;24.734;2023-04-02T03:51:16;66610.31;;;11.87;62.80
6835;BME280;3455;42.150;24.734;2023-04-02T03:53:44;66565.13;;;12.06;62.38
6835;BME280;3455;42.150;24.734;2023-04-02T03:56:24;66565.59;;;11.61;63.64
6835;BME280;3455;42.150;24.734;2023-04-02T03:58:55;66544.38;;;11.58;63.72
6835;BME280;3455;42.150;24.734;2023-04-02T04:01:32;66576.25;;;11.80;63.48
6835;BME280;3455;42.150;24.734;2023-04-02T04:04:03;66636.53;;;11.97;63.39
6835;BME280;3455;42.150;24.734;2023-04-02T04:06:35;66660.75;;;12.37;62.08
6835;BME280;3455;42.150;24.734;2023-04-02T04:09:08;66608.41;;;12.22;62.17
6835;BME280;3455;42.150;24.734;2023-04-02T04:11:38;66624.34;;;12.27;62.06
6835;BME280;3455;42.150;24.734;2023-04-02T04:14:14;66646.06;;;12.37;62.35
6835;BME280;3455;42.150;24.734;2023-04-02T04:16:47;66654.63;;;12.40;61.89
6835;BME280;3455;42.150;24.734;2023-04-02T04:19:21;66631.28;;;12.33;61.99
6835;BME280;3455;42.150;24.734;2023-04-02T04:22:07;66656.38;;;12.42;62.09
6835;BME280;3455;42.150;24.734;2023-04-02T04:24:34;66627.69;;;12.25;62.30
6835;BME280;3455;42.150;24.734;2023-04-02T04:27:05;66587.41;;;12.17;63.09
6835;BME280;3455;42.150;24.734;2023-04-02T04:29:40;66655.34;;;12.45;61.81
6835;BME280;3455;42.150;24.734;2023-04-02T04:32:18;66648.81;;;12.24;62.46
6835;BME280;3455;42.150;24.734;2023-04-02T04:34:55;66639.50;;;12.45;61.91
6835;BME280;3455;42.150;24.734;2023-04-02T04:37:30;66642.63;;;12.79;60.39
6835;BME280;3455;42.150;24.734;2023-04-02T04:40:02;66684.00;;;12.84;59.69
6835;BME280;3455;42.150;24.734;2023-04-02T04:42:33;66659.72;;;12.63;60.36
6835;BME280;3455;42.150;24.734;2023-04-02T04:45:05;66642.38;;;12.25;61.07
6835;BME280;3455;42.150;24.734;2023-04-02T04:47:37;66618.25;;;12.31;61.25
6835;BME280;3455;42.150;24.734;2023-04-02T04:50:07;66634.41;;;12.45;60.75
6835;BME280;3455;42.150;24.734;2023-04-02T04:52:40;66637.28;;;12.25;61.17
6835;BME280;3455;42.150;24.734;2023-04-02T04:55:26;66679.38;;;12.80;59.36
6835;BME280;3455;42.150;24.734;2023-04-02T04:57:55;66679.03;;;12.66;59.66
6835;BME280;3455;42.150;24.734;2023-04-02T05:00:31;66697.19;;;12.92;58.84
6835;BME280;3455;42.150;24.734;2023-04-02T05:03:05;66735.81;;;13.21;58.36
6835;BME280;3455;42.150;24.734;2023-04-02T05:05:37;66737.22;;;13.20;58.28
6835;BME280;3455;42.150;24.734;2023-04-02T05:08:13;66743.72;;;13.42;57.89
6835;BME280;3455;42.150;24.734;2023-04-02T05:10:46;66743.50;;;13.33;57.82
6835;BME280;3455;42.150;24.734;2023-04-02T05:13:17;66737.44;;;13.30;57.74
6835;BME280;3455;42.150;24.734;2023-04-02T05:15:50;66726.22;;;13.22;57.73
6835;BME280;3455;42.150;24.734;2023-04-02T05:18:24;66744.28;;;13.42;56.88
6835;BME280;3455;42.150;24.734;2023-04-02T05:21:13;66767.81;;;13.54;56.37
6835;BME280;3455;42.150;24.734;2023-04-02T05:23:53;66772.66;;;13.68;56.88
6835;BME280;3455;42.150;24.734;2023-04-02T05:26:24;66797.41;;;13.85;55.73
6835;BME280;3455;42.150;24.734;2023-04-02T05:28:59;66795.66;;;14.06;55.78
6835;BME280;3455;42.150;24.734;2023-04-02T05:31:35;66803.53;;;14.04;55.19
6835;BME280;3455;42.150;24.734;2023-04-02T05:34:03;66850.44;;;14.23;54.73
6835;BME280;3455;42.150;24.734;2023-04-02T05:36:31;66840.81;;;14.46;54.46
6835;BME280;3455;42.150;24.734;2023-04-02T05:38:59;66830.53;;;14.19;53.99
6835;BME280;3455;42.150;24.734;2023-04-02T05:41:28;66800.16;;;14.28;53.93
6835;BME280;3455;42.150;24.734;2023-04-02T05:44:05;66922.03;;;15.00;52.52
6835;BME280;3455;42.150;24.734;2023-04-02T05:46:34;66978.78;;;15.84;50.26
6835;BME280;3455;42.150;24.734;2023-04-02T05:49:07;67086.53;;;16.64;48.12
6835;BME280;3455;42.150;24.734;2023-04-02T05:51:40;67093.66;;;16.52;47.05
6835;BME280;3455;42.150;24.734;2023-04-02T05:54:18;67110.34;;;16.85;46.49
6835;BME280;3455;42.150;24.734;2023-04-02T05:56:50;67083.63;;;16.61;46.95
6835;BME280;3455;42.150;24.734;2023-04-02T05:59:21;67070.53;;;16.47;46.59
6835;BME280;3455;42.150;24.734;2023-04-02T06:01:50;67126.16;;;16.81;46.22
6835;BME280;3455;42.150;24.734;2023-04-02T06:04:23;67154.03;;;17.05;45.77
6835;BME280;3455;42.150;24.734;2023-04-02T06:06:57;67190.56;;;17.76;43.60
6835;BME280;3455;42.150;24.734;2023-04-02T06:09:34;67323.63;;;18.55;42.77
6835;BME280;3455;42.150;24.734;2023-04-02T06:12:12;67379.50;;;19.36;41.01
6835;BME280;3455;42.150;24.734;2023-04-02T06:14:41;67428.88;;;19.48;40.25
6835;BME280;3455;42.150;24.734;2023-04-02T06:17:09;67316.81;;;18.70;40.84
6835;BME280;3455;42.150;24.734;2023-04-02T06:19:37;67344.28;;;18.87;40.91
6835;BME280;3455;42.150;24.734;2023-04-02T06:22:13;67304.44;;;18.38;41.65
6835;BME280;3455;42.150;24.734;2023-04-02T06:24:44;67225.66;;;18.05;42.70
6835;BME280;3455;42.150;24.734;2023-04-02T06:27:15;67289.25;;;18.20;42.56
6835;BME280;3455;42.150;24.734;2023-04-02T06:29:47;67207.16;;;17.66;43.83
6835;BME280;3455;42.150;24.734;2023-04-02T06:32:18;67220.22;;;17.64;44.02
6835;BME280;3455;42.150;24.734;2023-04-02T06:34:47;67198.16;;;17.71;43.91
6835;BME280;3455;42.150;24.734;2023-04-02T06:37:20;67211.22;;;17.97;42.77
6835;BME280;3455;42.150;24.734;2023-04-02T06:39:50;67206.09;;;17.97;42.46
6835;BME280;3455;42.150;24.734;2023-04-02T06:42:20;67207.09;;;17.88;41.91
6835;BME280;3455;42.150;24.734;2023-04-02T06:44:48;67232.44;;;18.02;41.17
6835;BME280;3455;42.150;24.734;2023-04-02T06:47:21;67268.25;;;18.24;40.86
6835;BME280;3455;42.150;24.734;2023-04-02T06:49:55;67291.91;;;18.52;40.63
6835;BME280;3455;42.150;24.734;2023-04-02T06:52:26;67246.75;;;18.33;40.42
6835;BME280;3455;42.150;24.734;2023-04-02T06:54:56;67253.34;;;18.20;39.78
6835;BME280;3455;42.150;24.734;2023-04-02T06:57:23;67300.25;;;18.68;38.81
6835;BME280;3455;42.150;24.734;2023-04-02T06:59:50;67260.69;;;18.45;38.48
6835;BME280;3455;42.150;24.734;2023-04-02T07:02:26;67309.09;;;18.70;38.31
6835;BME280;3455;42.150;24.734;2023-04-02T07:05:00;67292.84;;;18.28;38.95
6835;BME280;3455;42.150;24.734;2023-04-02T07:07:28;67300.00;;;18.71;37.72
6835;BME280;3455;42.150;24.734;2023-04-02T07:09:56;67376.34;;;19.20;37.99
6835;BME280;3455;42.150;24.734;2023-04-02T07:12:23;67277.84;;;18.62;38.76
6835;BME280;3455;42.150;24.734;2023-04-02T07:14:51;67288.44;;;18.49;38.87
6835;BME280;3455;42.150;24.734;2023-04-02T07:17:19;67296.50;;;18.67;38.80
6835;BME280;3455;42.150;24.734;2023-04-02T07:19:46;67292.72;;;18.78;38.19
6835;BME280;3455;42.150;24.734;2023-04-02T07:22:15;67349.78;;;18.78;38.51
6835;BME280;3455;42.150;24.734;2023-04-02T07:24:42;67302.63;;;18.59;39.07
6835;BME280;3455;42.150;24.734;2023-04-02T07:27:10;67356.34;;;19.04;38.86
6835;BME280;3455;42.150;24.734;2023-04-02T07:29:37;67366.56;;;19.16;38.15
6835;BME280;3455;42.150;24.734;2023-04-02T07:32:07;67384.66;;;19.36;38.03
6835;BME280;3455;42.150;24.734;2023-04-02T07:34:34;67460.78;;;19.99;37.30
6835;BME280;3455;42.150;24.734;2023-04-02T07:37:00;67528.88;;;20.32;35.71
6835;BME280;3455;42.150;24.734;2023-04-02T07:39:28;67584.31;;;20.85;33.90
6835;BME280;3455;42.150;24.734;2023-04-02T07:41:56;67602.28;;;21.28;33.60
6835;BME280;3455;42.150;24.734;2023-04-02T07:44:25;67642.66;;;21.73;32.99
6835;BME280;3455;42.150;24.734;2023-04-02T07:46:52;67774.31;;;22.52;31.55
6835;BME280;3455;42.150;24.734;2023-04-02T07:49:19;67810.31;;;22.75;30.47
6835;BME280;3455;42.150;24.734;2023-04-02T07:51:48;67889.63;;;23.40;29.90
6835;BME280;3455;42.150;24.734;2023-04-02T07:54:14;67913.75;;;23.39;28.68
6835;BME280;3455;42.150;24.734;2023-04-02T07:56:41;67890.38;;;23.50;28.26
6835;BME280;3455;42.150;24.734;2023-04-02T07:59:08;67880.38;;;23.37;28.63
6835;BME280;3455;42.150;24.734;2023-04-02T08:01:37;68077.09;;;24.64;27.70
6835;BME280;3455;42.150;24.734;2023-04-02T08:04:04;68038.03;;;24.55;27.36
6835;BME280;3455;42.150;24.734;2023-04-02T08:06:32;67992.84;;;24.22;27.83
6835;BME280;3455;42.150;24.734;2023-04-02T08:08:59;68076.38;;;24.91;26.97
6835;BME280;3455;42.150;24.734;2023-04-02T08:11:26;68089.81;;;25.02;27.07
6835;BME280;3455;42.150;24.734;2023-04-02T08:13:52;68252.19;;;25.90;25.98
6835;BME280;3455;42.150;24.734;2023-04-02T08:16:19;68178.72;;;25.44;25.61
6835;BME280;3455;42.150;24.734;2023-04-02T08:18:49;67886.53;;;23.44;28.33
6835;BME280;3455;42.150;24.734;2023-04-02T08:21:16;68135.03;;;25.19;26.73
6835;BME280;3455;42.150;24.734;2023-04-02T08:23:42;68279.03;;;26.46;24.51
6835;BME280;3455;42.150;24.734;2023-04-02T08:26:15;68229.78;;;26.34;24.28
6835;BME280;3455;42.150;24.734;2023-04-02T08:28:42;68472.22;;;27.60;23.47
6835;BME280;3455;42.150;24.734;2023-04-02T08:31:09;68630.06;;;28.93;22.12
6835;BME280;3455;42.150;24.734;2023-04-02T08:33:37;68822.31;;;30.20;20.40
6835;BME280;3455;42.150;24.734;2023-04-02T08:36:06;68947.19;;;30.93;19.51
6835;BME280;3455;42.150;24.734;2023-04-02T08:38:32;69088.59;;;31.70;19.16
6835;BME280;3455;42.150;24.734;2023-04-02T08:41:00;68871.50;;;30.45;19.10
6835;BME280;3455;42.150;24.734;2023-04-02T08:43:59;68867.53;;;30.55;19.47
6835;BME280;3455;42.150;24.734;2023-04-02T08:46:32;69018.03;;;31.43;17.89
6835;BME280;3455;42.150;24.734;2023-04-02T08:49:10;68756.09;;;29.81;19.90
6835;BME280;3455;42.150;24.734;2023-04-02T08:51:40;69033.97;;;31.36;18.03
6835;BME280;3455;42.150;24.734;2023-04-02T08:54:14;68903.69;;;30.59;18.53
6835;BME280;3455;42.150;24.734;2023-04-02T08:56:48;69037.75;;;31.58;18.62
6835;BME280;3455;42.150;24.734;2023-04-02T08:59:22;69172.38;;;32.23;18.41
6835;BME280;3455;42.150;24.734;2023-04-02T09:01:56;68821.78;;;30.24;18.75
6835;BME280;3455;42.150;24.734;2023-04-02T09:04:25;68792.84;;;29.90;18.92
6835;BME280;3455;42.150;24.734;2023-04-02T09:06:55;68723.19;;;29.52;19.25
6835;BME280;3455;42.150;24.734;2023-04-02T09:09:23;68870.69;;;30.31;19.32
6835;BME280;3455;42.150;24.734;2023-04-02T09:11:53;68931.59;;;30.61;18.11
6835;BME280;3455;42.150;24.734;2023-04-02T09:14:25;68881.69;;;30.47;19.22
6835;BME280;3455;42.150;24.734;2023-04-02T09:16:59;68745.31;;;29.58;19.29
6835;BME280;3455;42.150;24.734;2023-04-02T09:19:32;68544.00;;;28.37;20.63
6835;BME280;3455;42.150;24.734;2023-04-02T09:22:06;68796.75;;;29.80;20.22
6835;BME280;3455;42.150;24.734;2023-04-02T09:24:34;69028.81;;;31.46;18.62
6835;BME280;3455;42.150;24.734;2023-04-02T09:27:02;69268.41;;;32.67;18.33
6835;BME280;3455;42.150;24.734;2023-04-02T09:29:41;69490.00;;;34.09;17.56
6835;BME280;3455;42.150;24.734;2023-04-02T09:32:25;69380.88;;;33.38;17.37
6835;BME280;3455;42.150;24.734;2023-04-02T09:35:11;69421.50;;;33.59;17.44
6835;BME280;3455;42.150;24.734;2023-04-02T09:37:42;69484.38;;;34.23;16.55
6835;BME280;3455;42.150;24.734;2023-04-02T09:40:22;69757.28;;;35.34;16.25
6835;BME280;3455;42.150;24.734;2023-04-02T09:43:07;69444.19;;;33.92;16.73
6835;BME280;3455;42.150;24.734;2023-04-02T09:45:35;69501.88;;;34.20;16.78
6835;BME280;3455;42.150;24.734;2023-04-02T09:48:16;69570.59;;;34.38;16.43
6835;BME280;3455;42.150;24.734;2023-04-02T09:50:47;69420.97;;;33.84;15.95
6835;BME280;3455;42.150;24.734;2023-04-02T09:53:28;69235.91;;;32.39;16.84
6835;BME280;3455;42.150;24.734;2023-04-02T09:56:13;69065.25;;;31.68;17.08
6835;BME280;3455;42.150;24.734;2023-04-02T09:58:40;69081.19;;;31.82;16.76
6835;BME280;3455;42.150;24.734;2023-04-02T10:01:25;69403.88;;;33.73;15.34
6835;BME280;3455;42.150;24.734;2023-04-02T10:03:53;69614.44;;;34.76;14.59
6835;BME280;3455;42.150;24.734;2023-04-02T10:06:20;69413.50;;;33.50;15.95
6835;BME280;3455;42.150;24.734;2023-04-02T10:08:49;69316.13;;;33.00;15.56
6835;BME280;3455;42.150;24.734;2023-04-02T10:11:18;69194.56;;;32.44;14.69
6835;BME280;3455;42.150;24.734;2023-04-02T10:13:51;69213.31;;;32.51;15.19
6835;BME280;3455;42.150;24.734;2023-04-02T10:16:23;69542.53;;;34.41;14.17
6835;BME280;3455;42.150;24.734;2023-04-02T10:18:54;69550.34;;;34.57;13.27
6835;BME280;3455;42.150;24.734;2023-04-02T10:21:24;69511.22;;;34.19;14.14
6835;BME280;3455;42.150;24.734;2023-04-02T10:23:53;69339.13;;;33.15;14.36
6835;BME280;3455;42.150;24.734;2023-04-02T10:26:52;69215.16;;;32.57;15.37
6835;BME280;3455;42.150;24.734;2023-04-02T10:29:41;69471.22;;;34.02;15.29
6835;BME280;3455;42.150;24.734;2023-04-02T10:32:13;69477.53;;;33.94;14.60
6835;BME280;3455;42.150;24.734;2023-04-02T10:34:43;69317.31;;;33.01;14.06
6835;BME280;3455;42.150;24.734;2023-04-02T10:37:43;69113.50;;;32.01;15.28
6835;BME280;3455;42.150;24.734;2023-04-02T10:40:20;69052.19;;;31.48;15.84
6835;BME280;3455;42.150;24.734;2023-04-02T10:42:57;69456.97;;;33.85;14.53
6835;BME280;3455;42.150;24.734;2023-04-02T10:45:34;69295.16;;;33.04;15.81
6835;BME280;3455;42.150;24.734;2023-04-02T10:48:11;69239.94;;;32.79;15.39
6835;BME280;3455;42.150;24.734;2023-04-02T10:50:48;69048.69;;;31.49;16.18
6835;BME280;3455;42.150;24.734;2023-04-02T10:53:18;68973.50;;;31.02;16.54
6835;BME280;3455;42.150;24.734;2023-04-02T10:55:51;69345.53;;;32.95;15.93
6835;BME280;3455;42.150;24.734;2023-04-02T10:58:22;69464.63;;;33.92;13.78
6835;BME280;3455;42.150;24.734;2023-04-02T11:00:52;69622.19;;;34.87;13.77
6835;BME280;3455;42.150;24.734;2023-04-02T11:03:28;69542.06;;;34.50;14.19
6835;BME280;3455;42.150;24.734;2023-04-02T11:05:57;69421.38;;;33.91;14.50
6835;BME280;3455;42.150;24.734;2023-04-02T11:08:28;69698.22;;;35.21;14.45
6835;BME280;3455;42.150;24.734;2023-04-02T11:11:00;69727.34;;;35.51;13.03
6835;BME280;3455;42.150;24.734;2023-04-02T11:13:34;69664.75;;;35.15;13.67
6835;BME280;3455;42.150;24.734;2023-04-02T11:16:02;69561.59;;;34.67;13.61
6835;BME280;3455;42.150;24.734;2023-04-02T11:18:30;69471.28;;;34.07;14.40
6835;BME280;3455;42.150;24.734;2023-04-02T11:21:04;69346.97;;;33.35;15.68
6835;BME280;3455;42.150;24.734;2023-04-02T11:23:34;69628.19;;;34.97;13.89
6835;BME280;3455;42.150;24.734;2023-04-02T11:29:24;69628.78;;;34.77;13.62
6835;BME280;3455;42.150;24.734;2023-04-02T11:35:24;69703.94;;;35.33;13.47
6835;BME280;3455;42.150;24.734;2023-04-02T11:37:52;69744.53;;;35.66;14.04
6835;BME280;3455;42.150;24.734;2023-04-02T11:40:41;69672.31;;;35.13;13.94
6835;BME280;3455;42.150;24.734;2023-04-02T11:46:40;69874.47;;;36.28;13.29
6835;BME280;3455;42.150;24.734;2023-04-02T11:49:38;69512.00;;;34.33;14.75
6835;BME280;3455;42.150;24.734;2023-04-02T11:52:23;69597.00;;;34.88;14.75
6835;BME280;3455;42.150;24.734;2023-04-02T11:57:56;69490.34;;;34.12;14.42
6835;BME280;3455;42.150;24.734;2023-04-02T12:00:39;69534.34;;;34.43;14.27
6835;BME280;3455;42.150;24.734;2023-04-02T12:06:33;69480.28;;;34.03;13.99
6835;BME280;3455;42.150;24.734;2023-04-02T12:09:17;69479.34;;;34.21;15.27
6835;BME280;3455;42.150;24.734;2023-04-02T12:11:47;69740.56;;;35.31;13.90
6835;BME280;3455;42.150;24.734;2023-04-02T12:14:40;69596.38;;;34.83;13.92
6835;BME280;3455;42.150;24.734;2023-04-02T12:17:15;69643.94;;;34.93;14.72
6835;BME280;3455;42.150;24.734;2023-04-02T12:19:46;69666.91;;;35.24;14.01
6835;BME280;3455;42.150;24.734;2023-04-02T12:22:17;69708.34;;;35.55;13.46
6835;BME280;3455;42.150;24.734;2023-04-02T12:24:46;69629.63;;;34.96;13.89
6835;BME280;3455;42.150;24.734;2023-04-02T12:27:17;69315.97;;;33.31;15.07
6835;BME280;3455;42.150;24.734;2023-04-02T12:29:47;69423.06;;;33.88;15.61
6835;BME280;3455;42.150;24.734;2023-04-02T12:32:22;69316.50;;;33.27;15.01
6835;BME280;3455;42.150;24.734;2023-04-02T12:34:51;69338.94;;;33.47;15.71
6835;BME280;3455;42.150;24.734;2023-04-02T12:37:22;69435.66;;;34.12;14.38
6835;BME280;3455;42.150;24.734;2023-04-02T12:39:52;69262.53;;;32.87;14.94
6835;BME280;3455;42.150;24.734;2023-04-02T12:42:27;68887.56;;;30.73;17.02
6835;BME280;3455;42.150;24.734;2023-04-02T12:44:54;69221.50;;;32.54;15.33
6835;BME280;3455;42.150;24.734;2023-04-02T12:47:21;69390.59;;;33.64;15.18
6835;BME280;3455;42.150;24.734;2023-04-02T12:49:48;69288.19;;;33.07;14.97
6835;BME280;3455;42.150;24.734;2023-04-02T12:52:18;69287.47;;;32.97;15.71
6835;BME280;3455;42.150;24.734;2023-04-02T12:54:48;69486.09;;;34.20;15.15
6835;BME280;3455;42.150;24.734;2023-04-02T12:57:20;69499.22;;;34.40;14.75
6835;BME280;3455;42.150;24.734;2023-04-02T12:59:47;69668.16;;;35.09;14.44
6835;BME280;3455;42.150;24.734;2023-04-02T13:02:18;69504.47;;;34.40;14.46
6835;BME280;3455;42.150;24.734;2023-04-02T13:04:46;69352.91;;;33.41;14.84
6835;BME280;3455;42.150;24.734;2023-04-02T13:07:15;69466.31;;;34.09;14.53
6835;BME280;3455;42.150;24.734;2023-04-02T13:09:44;69489.38;;;34.04;14.63
6835;BME280;3455;42.150;24.734;2023-04-02T13:12:24;69464.06;;;34.37;15.43
6835;BME280;3455;42.150;24.734;2023-04-02T13:14:53;69612.31;;;34.93;14.14
6835;BME280;3455;42.150;24.734;2023-04-02T13:17:41;69573.22;;;34.59;14.13
6835;BME280;3455;42.150;24.734;2023-04-02T13:20:29;69709.00;;;35.60;14.20
6835;BME280;3455;42.150;24.734;2023-04-02T13:22:57;69690.75;;;35.33;14.39
6835;BME280;3455;42.150;24.734;2023-04-02T13:25:28;69583.94;;;34.98;14.45
6835;BME280;3455;42.150;24.734;2023-04-02T13:27:57;69679.50;;;35.23;14.53
6835;BME280;3455;42.150;24.734;2023-04-02T13:30:25;69708.69;;;35.37;14.15
6835;BME280;3455;42.150;24.734;2023-04-02T13:32:53;69566.34;;;34.71;14.69
6835;BME280;3455;42.150;24.734;2023-04-02T13:35:20;69483.63;;;34.33;14.66
6835;BME280;3455;42.150;24.734;2023-04-02T13:37:47;69458.97;;;34.05;15.24
6835;BME280;3455;42.150;24.734;2023-04-02T13:40:15;69691.22;;;35.24;14.79
6835;BME280;3455;42.150;24.734;2023-04-02T13:42:43;69100.94;;;32.22;16.55
6835;BME280;3455;42.150;24.734;2023-04-02T13:45:21;68848.56;;;30.71;17.68
6835;BME280;3455;42.150;24.734;2023-04-02T13:47:49;69092.84;;;31.83;16.68
6835;BME280;3455;42.150;24.734;2023-04-02T13:50:17;69066.19;;;31.96;17.25
6835;BME280;3455;42.150;24.734;2023-04-02T13:52:45;69242.97;;;32.86;16.53
6835;BME280;3455;42.150;24.734;2023-04-02T13:55:14;69214.75;;;32.71;16.67